Darling Dash

Age Group Results

February 22, 2015


Results By Run Wild Sports Timing. Inc. (results questions? gmulvihill@aol.com)


Men: Top Finishers 0-12 13-19 20-29 30-39 40-49 50-59 60-69 70-98 99-99
Women: Top Finishers 0-12 13-19 20-29 30-39 40-49 50-59 60-69 99-99

5K

Top

Female Open Winners

Place Name City Bib No Age Overall Time Back Chip Time Gun Time Pace
1 Shannon Crowe Sugar Land TEXAS 1603 44 6   20:41.1 20:41.1 6:40/M
Top

Male Open Winners

Place Name City Bib No Age Overall Time Back Chip Time Gun Time Pace
1 Darwin Price Stafford TEXAS 1751 25 1   16:52.2 16:52.2 5:26/M
Top

Female 12 and Under

Place Name City Bib No Age Overall Time Back Chip Time Gun Time Pace
1 Claire Taylor Houston TEXAS 1596 7 17   22:48.4 22:48.4 7:21/M
2 Elyssa Rodarte Sugarland TEXAS 1637 10 22 1:04.7 23:53.2 23:53.2 7:42/M
3 Avery Perel Sugar Land TEXAS 1744 11 30 2:19.6 25:08.0 25:08.7 8:06/M
4 Freweini Hood Houston TEXAS 1532 10 44 3:56.3 26:44.8 26:48.0 8:37/M
5 Julia McDonald Missouri City TEXAS 1546 9 45 3:59.9 26:48.3 26:48.3 8:39/M
6 Kacey Lawson Katy TEXAS 1684 12 53 4:20.8 27:09.3 27:09.5 8:45/M
7 Taylor Jacobs Missouri City TEXAS 1741 11 59 5:19.3 28:07.7 28:07.7 9:04/M
8 Natalie Ramirez Sugar Land TEXAS 1647 9 60 5:23.0 28:11.5 28:20.9 9:05/M
9 Karlee Davis 1756 11 91 8:19.1 31:07.5 31:07.5 10:02/M
10 Mary Katherine Ferrelle 1757 11 92 8:19.5 31:08.0 31:08.0 10:03/M
11 Drew Phipps Sugar Land TX 1657 11 95 8:43.1 31:31.6 31:32.6 10:10/M
12 Annalise Adams Stafford TEXAS 1679 11 107 11:18.5 34:07.0 34:30.1 11:00/M
13 Kaylin Jacobs Missouri City TEXAS 1742 8 112 11:42.3 34:30.8 34:30.8 11:08/M
14 Ashley Hakimzadeh Sugar Land TEXAS 1700 10 117 12:49.7 35:38.2 35:38.2 11:30/M
15 Morgan Lang Katy TEXAS 1674 12 118 12:50.7 35:39.1 35:39.1 11:30/M
16 Madison Garcia Rosenberg TEXAS 1542 11 120 12:57.2 35:45.7 35:56.6 11:32/M
17 Natalie Page Sugar Land TEXAS 1749 12 130 14:13.7 37:02.2 37:03.4 11:57/M
18 Maddox Darnell Sugar Land TEXAS 1609 9 143 20:14.0 43:02.4 43:07.0 13:53/M
Top

Male 12 and Under

Place Name City Bib No Age Overall Time Back Chip Time Gun Time Pace
1 Reese Vannerson Sugar Land TEXAS 1507 10 5   20:32.4 20:32.4 6:37/M
2 Forrest Chandler Rosharon 1517 11 37 5:05.0 25:37.4 25:37.4 8:16/M
3 Aarya Tottempudi Richmond TEXAS 1737 10 39 5:32.7 26:05.1 26:15.5 8:25/M
4 Micah Darnell Sugar Land TEXAS 1607 10 40 6:05.0 26:37.4 26:42.5 8:35/M
5 Marcus Darnell Sugar Land TEXAS 1608 10 48 6:19.6 26:52.0 26:56.2 8:40/M
6 Zachary Lang Katy TEXAS 1673 10 55 7:04.5 27:36.9 27:36.9 8:54/M
7 Jacob Bowser Richmond TEXAS 1577 9 70 8:32.6 29:05.0 29:15.8 9:23/M
8 Matthew Valeri Sugar Land TEXAS 1694 9 77 8:58.4 29:30.8 29:30.8 9:31/M
9 Hanley Chandler Rosharon TEXAS 1518 10 79 9:29.1 30:01.5 30:10.1 9:41/M
10 Joshua Ross Richmond TEXAS 1562 11 141 21:29.7 42:02.2 42:02.2 13:34/M
11 Parker Konyha Rosenberg TEXAS 1530 8 149 23:46.5 44:18.9 44:30.1 14:17/M
Top

Female 13 to 19

Place Name City Bib No Age Overall Time Back Chip Time Gun Time Pace
1 Lexi Humphreys Richmond TEXAS 1528 15 74   29:25.7 29:29.3 9:29/M
2 Addie Ramsey Richmond TEXAS 1521 19 101 3:05.3 32:31.1 32:43.2 10:29/M
3 Vanessa Trivino Sugar Land TEXAS 1650 18 129 7:23.9 36:49.7 36:49.7 11:53/M
4 N'Dea Fleming 1769 17 154 15:50.2 45:15.9 45:32.9 14:36/M
Top

Male 13 to 19

Place Name City Bib No Age Overall Time Back Chip Time Gun Time Pace
1 Reagan Pace Sugar Land TEXAS 1653 17 2   17:09.5 17:09.5 5:32/M
2 Aaran Chandler Rosharon TEXAS 1516 13 8 4:27.5 21:37.0 21:37.0 6:58/M
3 Alexander Hakimzadeh Sugar Land TEXAS 1701 13 11 4:55.9 22:05.4 22:05.4 7:07/M
4 Kenji Chandler 1758 13 19 6:09.8 23:19.4 23:19.4 7:31/M
5 Anish Tottempudi Richmond TEXAS 1738 13 28 7:38.0 24:47.5 24:52.9 8:00/M
6 Ross Trivisonno Sugar Land TEXAS 1652 15 68 11:34.3 28:43.8 28:49.9 9:16/M
7 Kyle Arnold Richmond TEXAS 1586 13 89 13:34.9 30:44.4 30:44.4 9:55/M
8 Logan Murany Sugar Land TEXAS 1630 16 124 18:47.3 35:56.9 36:06.2 11:35/M
Top

Female 20 to 29

Place Name City Bib No Age Overall Time Back Chip Time Gun Time Pace
1 Kara Koinis Bellaire TEXAS 1547 23 26   24:12.9 24:15.6 7:48/M
2 Karissa Siwa Sugar Land TEXAS 1727 27 33 1:09.0 25:22.0 25:22.0 8:11/M
3 Alisha Pace Sugar Land TEXAS 1681 20 46 2:36.3 26:49.2 26:54.3 8:39/M
4 Chelsea Barnett Katy TEXAS 1671 22 80 5:55.2 30:08.1 30:11.3 9:43/M
5 Missi Carpenter Sugar Land TEXAS 1731 23 83 6:13.5 30:26.4 30:28.1 9:49/M
6 Sarah Rodgers Missouri City TEXAS 1621 27 94 7:08.3 31:21.2 31:35.1 10:07/M
7 Brittany Logan Pearland TEXAS 1644 28 150 20:17.6 44:30.6 44:32.7 14:21/M
8 Nikki Reyes 1765 24 153 20:50.1 45:03.0 45:06.5 14:32/M
9 Ashleigh Tremblay Katy TEXAS 1529 25 162 24:39.4 48:52.3 48:56.3 15:46/M
10 Rachel Drlik Garwood TEXAS 1540 23 165 28:00.9 52:13.8 52:16.9 16:51/M
11 Raniah Adams 1761 26 172 29:42.9 53:55.9 54:20.1 17:24/M
Top

Male 20 to 29

Place Name City Bib No Age Overall Time Back Chip Time Gun Time Pace
1 Kedrick Smith 1759 25 21   23:44.3 23:44.3 7:39/M
2 Alec Bergerson Angleton TEXAS 1553 22 25 0:28.0 24:12.4 24:15.4 7:48/M
3 Neil Gose Tomball TEXAS 1510 26 62 4:29.8 28:14.2 28:14.8 9:06/M
4 Daniel Russell Houston TEXAS 1660 29 75 5:42.4 29:26.8 29:47.8 9:30/M
5 Jordan McDonough Houston TEXAS 1636 29 76 5:45.6 29:30.0 30:46.9 9:31/M
6 Matthew Salinas Rosenberg TEXAS 1543 24 121 12:01.7 35:46.1 35:56.9 11:32/M
7 Abbas Somji Houston TEXAS 1642 24 133 14:19.0 38:03.4 38:03.4 12:16/M
Top

Female 30 to 39

Place Name City Bib No Age Overall Time Back Chip Time Gun Time Pace
1 Lauren Gobar Fulshear TEXAS 1747 32 13   22:20.3 22:21.4 7:12/M
2 Candice Taylor-Horvath Philadelphia PENNSYLVAN 1554 36 20 1:07.6 23:28.0 23:32.7 7:34/M
3 Taushah Crawford Houston TEXAS 1508 31 27 2:21.0 24:41.3 24:41.6 7:58/M
4 Dayna Garner Sugar Land TEXAS 1726 31 38 3:25.6 25:45.9 25:46.8 8:18/M
5 Jennifer Fontenot Richmond 1526 34 51 4:42.9 27:03.2 27:07.7 8:44/M
6 Ny Dangerfield Houston TEXAS 1659 35 52 4:47.0 27:07.3 27:12.2 8:45/M
7 Anne Gill Cypress TEXAS 1729 35 56 5:17.8 27:38.1 27:42.5 8:55/M
8 Michelle Schwartz Buda TEXAS 1552 30 63 5:57.6 28:17.9 28:20.3 9:07/M
9 Penelope Diaz Houston TEXAS 1570 33 66 6:10.7 28:31.0 28:33.1 9:12/M
10 Karen Downey Sugar Land TEXAS 1535 33 73 7:05.3 29:25.6 29:35.8 9:29/M
11 Michelle Davila Missouri City TEXAS 1686 37 90 8:40.4 31:00.8 31:20.1 10:00/M
12 Nakia Coy Katy TEXAS 1604 39 93 8:48.9 31:09.2 31:11.6 10:03/M
13 Monika Welborn Richmond TEXAS 1709 36 97 9:49.5 32:09.8 32:18.2 10:22/M
14 Dawn Keen Houston TEXAS 1519 37 102 10:57.2 33:17.5 33:30.4 10:44/M
15 Sophia Asare Houston TEXAS 1534 30 105 11:29.8 33:50.1 34:10.7 10:55/M
16 Jaime Peoples Beasley TEXAS 1501 36 108 11:46.9 34:07.2 34:19.5 11:00/M
17 Roxann Bennett Richmond TEXAS 1505 38 110 12:04.8 34:25.1 34:41.6 11:06/M
18 Kimberly Kobos Richmond TEXAS 1662 31 131 14:56.3 37:16.7 37:26.3 12:01/M
19 Carly Darnell Sugar Land TEXAS 1611 34 145 20:58.9 43:19.2 43:24.3 13:58/M
20 Desiree Adams Stafford TEXAS 1680 32 155 23:09.3 45:29.6 45:53.2 14:40/M
21 Aarti Gokhale Sugar Land TEXAS 1613 32 156 24:23.0 46:43.3 46:43.3 15:04/M
22 Amy Contreras Houston TEXAS 1619 32 157 25:02.3 47:22.6 47:28.7 15:17/M
23 Chrysta Lloyd Richmond TEXAS 1578 35 158 25:07.1 47:27.4 47:27.4 15:18/M
24 Natalee Torres Richmond TEXAS 1688 34 169 30:20.5 52:40.8 52:52.1 16:59/M
25 Rosina Kiggundu Sugar Land TEXAS 1692 32 175 31:58.3 54:18.6 54:40.6 17:31/M
26 Jacquelyn Makay Houston TEXAS 1531 39 177 32:41.1 55:01.4 55:05.2 17:45/M
27 Latricia Wallace Houston TEXAS 1548 34 180 33:47.9 56:08.2 56:28.4 18:06/M
Top

Male 30 to 39

Place Name City Bib No Age Overall Time Back Chip Time Gun Time Pace
1 Robert Lopez Mcallen TEXAS 1628 33 10   21:55.2 21:55.2 7:04/M
2 Anabel Wilson 1755 37 12 0:19.1 22:14.3 22:14.3 7:10/M
3 Bobby Darnell Sugar Land TEXAS 1610 36 24 2:13.5 24:08.8 24:13.3 7:47/M
4 Jeff Wong Chicago ILLINOIS 1525 33 34 3:27.0 25:22.3 25:29.6 8:11/M
5 Jammy Kiggundu Sugar Land TEXAS 1691 36 35 3:29.5 25:24.8 25:47.0 8:12/M
6 Brandon Ready Sugar Land TEXAS 1736 36 43 4:48.6 26:43.9 26:50.1 8:37/M
7 Sean Hall Katy TEXAS 1513 31 47 4:55.7 26:51.0 26:51.0 8:40/M
8 Warren Clavelle Houston TEXAS 1600 36 49 4:58.0 26:53.2 26:55.9 8:40/M
9 John Payne Missouri City TEXAS 1735 32 50 4:58.0 26:53.2 26:58.8 8:40/M
10 Shane Fontenot Richmond TEXAS 1527 38 54 5:26.3 27:21.5 27:25.0 8:49/M
11 Brandon Gray Houston TEXAS 1708 36 78 7:53.8 29:49.1 29:57.3 9:37/M
12 Sherman Harness 1771 35 82 8:26.4 30:21.7 30:25.1 9:47/M
13 Billy Asare Corpus Christi TEXAS 1693 31 88 8:46.4 30:41.7 31:02.7 9:54/M
14 Greg Christie 1760 36 99 10:24.5 32:19.7 32:22.9 10:25/M
15 Ordel Davis Houston TEXAS 1678 39 100 10:26.7 32:22.0 32:30.8 10:26/M
16 Tyson Bower Sugar Land TEXAS 1728 32 104 11:43.9 33:39.2 33:40.5 10:51/M
17 Trey Posey Fort Worth TEXAS 1682 37 109 12:14.2 34:09.5 34:19.6 11:01/M
18 Bisi Nwaokelemeh 1772 39 134 16:08.6 38:03.8 38:17.4 12:16/M
19 Michael Kobos Richmond TEXAS 1663 30 135 16:30.6 38:25.8 38:34.7 12:24/M
20 Dennis Darling Richmond TEXAS 1730 39 139 20:00.8 41:56.0 42:28.7 13:32/M
21 Chuli Ogaeli 1773 31 148 22:00.9 43:56.1 43:56.1 14:10/M
22 Hoang Lu Houston TEXAS 1723 34 176 32:44.8 54:40.1 54:40.1 17:38/M
Top

Female 40 to 49

Place Name City Bib No Age Overall Time Back Chip Time Gun Time Pace
1 Stacy Koscinski Sugar Land TEXAS 1702 45 9   21:49.6 21:49.6 7:02/M
2 Mandi Arnold Stafford TEXAS 1750 40 42 4:51.6 26:41.3 26:45.4 8:36/M
3 Martha Parker Houston TEXAS 1533 41 57 6:03.3 27:53.0 27:56.1 9:00/M
4 Kim Lawson Katy TEXAS 1685 43 58 6:09.7 27:59.4 27:59.8 9:02/M
5 Katherine Palmer Bellaire TEXAS 1669 45 61 6:24.3 28:14.0 28:45.4 9:06/M
6 Milessa Rutherford Sugar Land TEXAS 1720 46 64 6:29.3 28:19.0 28:21.5 9:08/M
7 Palmira Ramirez Missouri City TEXAS 1638 46 71 7:29.6 29:19.3 29:26.8 9:27/M
8 Clari Dachman Sugar Land TEXAS 1625 49 86 8:43.8 30:33.5 30:39.7 9:51/M
9 Kimberly Ursery Sugar Land TEXAS 1615 47 119 13:54.4 35:44.1 35:50.0 11:32/M
10 Jennifer Darling Katy TEXAS 1569 40 123 14:07.1 35:56.8 36:01.5 11:35/M
11 Brigitte Radulovich Missouri City TEXAS 1514 40 127 14:50.6 36:40.3 36:57.5 11:50/M
12 Rebecca Perel Sugar Land TEXAS 1746 45 132 15:49.8 37:39.5 37:41.0 12:09/M
13 Cheryl Jones Spring TEXAS 1576 48 137 19:42.4 41:32.1 41:40.9 13:24/M
14 Barbara Pratt Pearland TEXAS 1575 44 138 19:44.2 41:33.9 41:42.5 13:24/M
15 Kimolyn Vanzant Houston TEXAS 1707 49 142 21:12.4 43:02.1 43:02.1 13:53/M
16 Linda Elliott Houston TEXAS 1585 40 144 21:24.8 43:14.5 43:14.5 13:57/M
17 Nicole Fleming 1768 44 152 23:10.8 45:00.5 45:18.0 14:31/M
18 Joy Jones Houston TEXAS 1538 45 164 30:03.2 51:52.9 52:04.7 16:44/M
19 Cheryl Piccio Richmond TEXAS 1545 44 167 30:30.1 52:19.8 52:19.8 16:53/M
20 Tommie Vilas Richmond TEXAS 1677 40 168 30:47.4 52:37.0 52:48.5 16:58/M
21 Glenda Vega Houston TEXAS 1687 40 171 31:01.4 52:51.1 52:51.1 17:03/M
Top

Male 40 to 49

Place Name City Bib No Age Overall Time Back Chip Time Gun Time Pace
1 William Arnold Richmond TEXAS 1763 47 3   17:32.9 17:32.9 5:39/M
2 Daniel Horvath Philadelphia PENNSYLVAN 1555 40 4 0:09.8 17:42.8 17:42.8 5:43/M
3 Edward Moncur Houston TEXAS 1748 42 7 4:04.0 21:37.0 21:37.0 6:58/M
4 Howang Lee Sugar Land TX 1754 40 14 4:53.7 22:26.6 22:26.7 7:14/M
5 Kevin Taylor Houston TEXAS 1595 44 15 4:56.5 22:29.5 22:29.5 7:15/M
6 Mitch Danklef Sugar Land TEXAS 1725 49 18 5:31.8 23:04.8 23:10.9 7:26/M
7 Jones Mays Houston TEXAS 1539 44 23 6:34.2 24:07.2 24:07.2 7:47/M
8 Steve Defrancesco 1762 49 36 8:00.4 25:33.3 25:33.3 8:15/M
9 Charles Nichols Houston TEXAS 1634 42 41 9:06.7 26:39.6 26:45.1 8:36/M
10 Craig Phipps Sugar Land TX 1658 46 67 11:01.0 28:34.0 28:34.1 9:13/M
11 Israel Uvalle Missouri City TEXAS 1639 43 81 12:47.2 30:20.2 30:36.2 9:47/M
12 Devon Coy Katy TEXAS 1605 41 96 14:36.0 32:08.9 32:11.6 10:22/M
13 Matthew Perel Sugar Land TEXAS 1745 44 106 16:32.9 34:05.9 34:06.7 11:00/M
14 Ron Echols Richmond TEXAS 1544 47 166 34:45.2 52:18.2 52:18.2 16:52/M
Top

Female 50 to 59

Place Name City Bib No Age Overall Time Back Chip Time Gun Time Pace
1 Susan Bragdon Houston TEXAS 1643 56 32   25:19.9 25:26.6 8:10/M
2 Jacque Wolf Houston TEXAS 1732 53 65 2:59.2 28:19.1 28:19.1 9:08/M
3 Helen Smith Richmond TEXAS 1515 56 69 3:33.5 28:53.5 28:57.4 9:19/M
4 Kathy Carpenter Sugar Land TEXAS 1572 56 84 5:06.9 30:26.8 30:28.3 9:49/M
5 Susan Gregory Sugar Land TEXAS 1703 56 87 5:15.2 30:35.1 30:39.5 9:52/M
6 Mary Sorgenfrei Sugar Land TEXAS 1710 55 98 6:56.4 32:16.4 32:29.9 10:25/M
7 Vicki Villarreal Webster TEXAS 1655 52 111 9:09.7 34:29.6 34:31.9 11:07/M
8 Marjorie Trivino Sugar Land TEXAS 1651 53 113 9:42.1 35:02.1 35:02.1 11:18/M
9 Denise Larson Sugar Land TEXAS 1601 56 116 10:09.4 35:29.3 35:38.7 11:27/M
10 Rosibel Estopinal Houston TEXAS 1509 53 122 10:29.0 35:48.9 36:00.5 11:33/M
11 Beth Murany Sugar Land TEXAS 1629 52 125 10:37.0 35:57.0 36:05.4 11:36/M
12 Della Bartlett Richmond TEXAS 1520 50 136 13:32.2 38:52.1 39:06.7 12:32/M
13 Beth Ruzicka Sugar Land TEXAS 1523 50 146 18:20.4 43:40.4 43:54.1 14:05/M
14 Vanesa Adams Stafford TEXAS 1524 57 151 19:33.4 44:53.3 45:00.0 14:29/M
15 Patricia Anderson Katy TEXAS 1551 55 160 22:14.5 47:34.5 47:42.5 15:21/M
16 Deborah Simmons Houston TEXAS 1706 50 161 22:23.7 47:43.7 47:43.8 15:24/M
17 Mary Lou Ford Richmond TEXAS 1689 58 170 27:22.2 52:42.1 52:54.0 17:00/M
Top

Male 50 to 59

Place Name City Bib No Age Overall Time Back Chip Time Gun Time Pace
1 Joe Gonzales Richmond TEXAS 1672 51 16   22:46.7 22:47.5 7:21/M
2 Robert Sawchuk Sugar Land TEXAS 1506 50 29 2:09.3 24:56.1 24:57.6 8:03/M
3 George Lewis Sugar Land TEXAS 1711 51 31 2:28.6 25:15.3 25:16.6 8:09/M
4 Clark McKaig Pearland TEXAS 1739 50 85 7:44.5 30:31.2 30:42.1 9:51/M
5 Joel Levine Missouri City TEXAS 1733 53 114 12:40.6 35:27.3 35:28.0 11:26/M
6 Robert Larson Sugar Land TEXAS 1602 55 115 12:42.4 35:29.1 35:38.9 11:27/M
7 Richard Dachman Sugar Land TEXAS 1626 58 126 13:28.2 36:15.0 36:20.3 11:42/M
8 Brent Carpenter Sugar Land TEXAS 1571 55 147 21:01.5 43:48.2 43:58.6 14:08/M
9 Sam Mack Houston TEXAS 1549 57 179 33:20.3 56:07.0 56:26.7 18:06/M
Top

Female 60 to 69

Place Name City Bib No Age Overall Time Back Chip Time Gun Time Pace
1 Pat Brock 1764 64 128   36:44.5 36:48.0 11:51/M
2 Patricia Oliver Missouri City TEXAS 1705 64 173 17:32.9 54:17.4 54:32.8 17:31/M
Top

Male 60 to 69

Place Name City Bib No Age Overall Time Back Chip Time Gun Time Pace
1 Thomas Parr Sugar Land TEXAS 1624 69 72   29:21.2 29:22.5 9:28/M
2 George Anderson Katy TEXAS 1550 64 159 18:12.8 47:34.1 47:41.7 15:21/M
3 Andrew Oliver Missouri City TEXAS 1704 60 174 24:56.5 54:17.7 54:33.2 17:31/M
Top

Male 70 +

Place Name City Bib No Age Overall Time Back Chip Time Gun Time Pace
1 Richard Brann Houston TEXAS 1612 71 103   33:31.1 33:36.5 10:49/M
2 Jonathan Palmer Bellaire TEXAS 1670 71 163 16:51.5 50:22.7 50:41.1 16:15/M
Top

unknown

Place Name City Bib No Age Overall Time Back Chip Time Gun Time Pace
1 Evone Ogadia 1774 99 178   55:13.3 55:13.3 17:49/M
Top

unknown

Place Name City Bib No Age Overall Time Back Chip Time Gun Time Pace
1 Alan Ekpenyong 1770 99 140   41:57.0 42:29.9 13:32/M